Gora Airstrip


Codes: GOC/GOC
Name: Gora Airstrip
City: Gora
Country: Papua New Guinea
Elevation: 2497 ft.

Photos at Gora Airstrip


   Photos courtesy of SpottingLog. You can add your own sightings and photos by signing up for a free trial today.



No photos found.

Weather at Gora Airstrip


Time (UTC)DescriptionTempratureWindCloud coverageVisibilityPressureHumidity
18-Apr-2024 00:00Light Rain25°C2 mph, N90%10000m1011hPa75%
18-Apr-2024 03:00Light Rain25°C2 mph, N82%7530m1010hPa80%
18-Apr-2024 06:00Moderate Rain23°C2 mph, NE86%6317m1009hPa89%
18-Apr-2024 09:00Moderate Rain20°C0 mph, SE84%10000m1011hPa99%
18-Apr-2024 12:00Light Rain20°C2 mph, SE72%10000m1012hPa98%
18-Apr-2024 15:00Light Rain19°C2 mph, SW69%10000m1011hPa98%
18-Apr-2024 18:00Broken Clouds19°C2 mph, SW82%10000m1010hPa98%
18-Apr-2024 21:00Overcast Clouds20°C2 mph, SW93%10000m1012hPa95%
19-Apr-2024 00:00Broken Clouds26°C4 mph, N59%10000m1012hPa65%
19-Apr-2024 03:00Scattered Clouds28°C7 mph, N29%10000m1008hPa58%
19-Apr-2024 06:00Scattered Clouds27°C4 mph, N31%10000m1007hPa66%
19-Apr-2024 09:00Broken Clouds21°C0 mph, E64%10000m1010hPa98%
19-Apr-2024 12:00Broken Clouds21°C0 mph, SW81%10000m1012hPa97%
19-Apr-2024 15:00Overcast Clouds20°C0 mph, SW94%10000m1011hPa97%
19-Apr-2024 18:00Overcast Clouds20°C2 mph, SW97%10000m1011hPa97%
19-Apr-2024 21:00Overcast Clouds20°C2 mph, SW100%10000m1013hPa92%
20-Apr-2024 00:00Overcast Clouds26°C4 mph, SW99%10000m1012hPa67%
20-Apr-2024 03:00Overcast Clouds28°C4 mph, N100%10000m1009hPa58%
20-Apr-2024 06:00Overcast Clouds26°C4 mph, N100%10000m1008hPa69%
20-Apr-2024 09:00Light Rain21°C2 mph, NW100%1360m1011hPa99%
20-Apr-2024 12:00Overcast Clouds21°C2 mph, SW100%7925m1012hPa99%
20-Apr-2024 15:00Overcast Clouds20°C2 mph, S99%10000m1011hPa98%
20-Apr-2024 18:00Overcast Clouds19°C2 mph, SW96%10000m1011hPa97%
20-Apr-2024 21:00Broken Clouds20°C2 mph, SW77%10000m1013hPa91%
21-Apr-2024 00:00Overcast Clouds26°C4 mph, N89%10000m1012hPa66%
21-Apr-2024 03:00Overcast Clouds28°C4 mph, N100%10000m1009hPa58%
21-Apr-2024 06:00Light Rain26°C4 mph, N100%10000m1008hPa73%
21-Apr-2024 09:00Light Rain21°C2 mph, N100%10000m1010hPa99%
21-Apr-2024 12:00Overcast Clouds21°C2 mph, NW100%10000m1012hPa98%
21-Apr-2024 15:00Overcast Clouds20°C2 mph, W100%10000m1011hPa98%
21-Apr-2024 18:00Overcast Clouds20°C2 mph, SW100%7931m1010hPa99%
21-Apr-2024 21:00Overcast Clouds20°C2 mph, W100%10000m1012hPa97%
22-Apr-2024 00:00Overcast Clouds26°C4 mph, N98%10000m1011hPa68%
22-Apr-2024 03:00Broken Clouds28°C7 mph, N59%10000m1008hPa52%
22-Apr-2024 06:00Broken Clouds27°C4 mph, N73%10000m1007hPa62%
22-Apr-2024 09:00Overcast Clouds20°C2 mph, NW88%10000m1010hPa99%
22-Apr-2024 12:00Overcast Clouds20°C2 mph, W91%10000m1011hPa98%
22-Apr-2024 15:00Broken Clouds19°C2 mph, SW63%10000m1011hPa97%
22-Apr-2024 18:00Scattered Clouds18°C2 mph, SW43%10000m1010hPa97%
22-Apr-2024 21:00Few Clouds19°C2 mph, SW21%10000m1012hPa90%